createdAt,value
2018-08-23T00:01:30.618Z,22.58
2018-08-23T00:06:34.792Z,22.55
2018-08-23T00:11:43.697Z,22.39
2018-08-23T00:16:48.464Z,22.25
2018-08-23T00:21:52.108Z,22.19
2018-08-23T00:27:00.763Z,22.03
2018-08-23T00:32:07.767Z,21.92
2018-08-23T00:37:13.030Z,21.87
2018-08-23T00:42:18.272Z,21.86
2018-08-23T00:47:23.621Z,21.88
2018-08-23T00:52:42.112Z,21.80
2018-08-23T00:57:46.814Z,21.74
2018-08-23T01:02:51.358Z,21.78
2018-08-23T01:07:55.333Z,21.74
2018-08-23T01:13:00.837Z,21.64
2018-08-23T01:18:15.755Z,21.60
2018-08-23T01:23:19.360Z,21.13
2018-08-23T01:28:22.870Z,21.13
2018-08-23T01:33:26.917Z,20.91
2018-08-23T01:38:30.444Z,20.93
2018-08-23T01:43:34.042Z,20.98
2018-08-23T01:48:37.651Z,20.90
2018-08-23T01:53:41.195Z,20.85
2018-08-23T01:58:45.862Z,20.85
2018-08-23T02:03:49.821Z,20.79
2018-08-23T02:08:53.800Z,20.82
2018-08-23T02:13:57.416Z,20.84
2018-08-23T02:19:01.075Z,20.75
2018-08-23T02:24:04.647Z,20.66
2018-08-23T02:29:08.182Z,20.54
2018-08-23T02:34:16.018Z,20.38
2018-08-23T02:39:19.782Z,20.26
2018-08-23T02:44:23.350Z,20.29
2018-08-23T02:49:26.870Z,20.22
2018-08-23T02:54:30.673Z,20.14
2018-08-23T02:59:34.496Z,20.04
2018-08-23T03:04:38.073Z,20.00
2018-08-23T03:09:44.083Z,19.87
2018-08-23T03:14:48.172Z,19.94
2018-08-23T03:20:12.565Z,19.75
2018-08-23T03:25:18.232Z,19.68
2018-08-23T03:30:35.280Z,19.62
2018-08-23T03:35:38.882Z,19.56
2018-08-23T03:40:42.433Z,19.54
2018-08-23T03:45:46.352Z,19.48
2018-08-23T03:50:51.813Z,19.47
2018-08-23T03:56:07.425Z,19.50
2018-08-23T04:01:14.270Z,19.39
2018-08-23T04:06:39.025Z,19.32
2018-08-23T04:11:43.398Z,19.20
2018-08-23T04:16:46.977Z,19.16
2018-08-23T04:21:50.848Z,19.14
2018-08-23T04:26:54.351Z,19.13
2018-08-23T04:31:57.944Z,19.13
2018-08-23T04:37:01.596Z,19.09
2018-08-23T04:42:05.667Z,19.12
2018-08-23T04:47:09.996Z,19.21
2018-08-23T04:52:14.126Z,19.20
2018-08-23T04:57:17.688Z,19.17
2018-08-23T05:02:21.341Z,19.15
2018-08-23T05:07:24.908Z,19.27
2018-08-23T05:12:28.595Z,19.27
2018-08-23T05:17:32.091Z,19.28
2018-08-23T05:22:35.652Z,19.28
2018-08-23T05:27:55.402Z,19.25
2018-08-23T05:33:06.003Z,19.77
2018-08-23T05:38:10.245Z,19.88
2018-08-23T05:43:14.533Z,19.87
2018-08-23T05:48:31.982Z,19.79
2018-08-23T05:53:41.306Z,19.14
2018-08-23T05:58:44.764Z,19.69
2018-08-23T06:03:48.406Z,19.51
2018-08-23T06:08:57.340Z,19.27
2018-08-23T06:14:00.930Z,19.76
2018-08-23T06:19:04.404Z,19.71
2018-08-23T06:24:09.347Z,20.14
2018-08-23T06:29:26.201Z,20.42
2018-08-23T06:34:31.393Z,20.57
2018-08-23T06:39:34.874Z,20.65
2018-08-23T06:44:51.549Z,20.50
2018-08-23T06:49:55.597Z,20.40
2018-08-23T06:54:59.249Z,20.96
2018-08-23T07:00:03.371Z,21.58
2018-08-23T07:05:06.965Z,21.14
2018-08-23T07:10:11.919Z,21.61
2018-08-23T07:15:15.521Z,21.87
2018-08-23T07:20:19.107Z,22.13
2018-08-23T07:25:23.033Z,22.04
2018-08-23T07:30:26.568Z,22.03
2018-08-23T07:35:30.119Z,22.46
2018-08-23T07:40:33.777Z,23.05
2018-08-23T07:45:37.534Z,22.91
2018-08-23T07:50:41.085Z,23.13
2018-08-23T07:55:44.630Z,23.48
2018-08-23T08:00:48.164Z,23.57
2018-08-23T08:05:51.920Z,23.71
2018-08-23T08:10:59.614Z,23.75
2018-08-23T08:16:13.985Z,23.88
2018-08-23T08:21:18.425Z,23.92
2018-08-23T08:26:22.165Z,24.11
2018-08-23T08:31:25.754Z,23.94
2018-08-23T08:36:31.269Z,24.11
2018-08-23T08:41:37.449Z,24.06
2018-08-23T08:46:41.681Z,24.07
2018-08-23T08:51:45.486Z,24.30
2018-08-23T08:56:49.206Z,24.34
2018-08-23T09:01:53.261Z,24.84
2018-08-23T09:06:56.866Z,25.04
2018-08-23T09:12:03.743Z,25.23
2018-08-23T09:17:23.983Z,25.12
2018-08-23T09:22:27.693Z,25.11
2018-08-23T09:27:31.212Z,25.11
2018-08-23T09:32:35.359Z,25.11
2018-08-23T09:37:39.755Z,25.15
2018-08-23T09:42:43.255Z,25.27
2018-08-23T09:47:46.945Z,25.67
2018-08-23T09:52:51.475Z,26.21
2018-08-23T09:57:55.073Z,26.16
2018-08-23T10:03:04.891Z,25.88
2018-08-23T10:08:14.292Z,25.62
2018-08-23T10:13:23.330Z,25.19
2018-08-23T10:18:32.633Z,25.64
2018-08-23T10:23:36.203Z,26.16
2018-08-23T10:28:45.233Z,26.13
2018-08-23T10:33:48.918Z,26.57
2018-08-23T10:38:52.844Z,26.74
2018-08-23T10:43:57.174Z,27.23
2018-08-23T10:49:01.105Z,27.34
2018-08-23T10:54:04.650Z,26.92
2018-08-23T10:59:08.596Z,27.01
2018-08-23T11:04:12.126Z,27.42
2018-08-23T11:10:20.885Z,27.56
2018-08-23T11:15:25.425Z,27.76
2018-08-23T11:20:31.539Z,27.99
2018-08-23T11:25:35.113Z,28.06
2018-08-23T11:30:38.797Z,27.77
2018-08-23T11:35:42.371Z,27.78
2018-08-23T11:40:46.037Z,27.81
2018-08-23T11:45:54.884Z,27.89
2018-08-23T11:50:59.036Z,27.76
2018-08-23T11:56:02.797Z,27.97
2018-08-23T12:01:11.672Z,28.26
2018-08-23T12:06:16.515Z,28.33
2018-08-23T12:11:20.082Z,27.99
2018-08-23T12:16:23.633Z,28.00
2018-08-23T12:21:27.232Z,28.30
2018-08-23T12:26:31.032Z,28.00
2018-08-23T12:31:34.569Z,27.81
2018-08-23T12:36:44.009Z,28.09
2018-08-23T12:41:53.064Z,28.35
2018-08-23T12:47:02.134Z,28.50
2018-08-23T12:52:05.888Z,28.93
2018-08-23T12:57:09.581Z,29.08
2018-08-23T13:02:13.295Z,28.96
2018-08-23T13:07:16.833Z,28.57
2018-08-23T13:12:20.534Z,28.53
2018-08-23T13:17:24.361Z,28.37
2018-08-23T13:22:33.470Z,28.52
2018-08-23T13:27:37.184Z,28.16
2018-08-23T13:32:57.346Z,28.53
2018-08-23T13:38:00.910Z,28.93
2018-08-23T13:43:04.509Z,28.85
2018-08-23T13:48:08.344Z,28.57
2018-08-23T13:53:12.080Z,28.59
2018-08-23T13:58:15.672Z,28.65
2018-08-23T14:03:19.293Z,28.60
2018-08-23T14:08:22.828Z,28.42
2018-08-23T14:13:26.495Z,28.55
2018-08-23T14:18:30.029Z,28.69
2018-08-23T14:23:33.619Z,28.54
2018-08-23T14:28:37.623Z,28.49
2018-08-23T14:33:41.091Z,28.75
2018-08-23T14:38:44.675Z,28.58
2018-08-23T14:43:48.245Z,28.47
2018-08-23T14:48:52.307Z,28.93
2018-08-23T14:53:56.056Z,28.38
2018-08-23T14:58:59.610Z,28.38
2018-08-23T15:04:03.789Z,28.83
2018-08-23T15:09:08.501Z,28.59
2018-08-23T15:14:12.156Z,28.36
2018-08-23T15:19:15.698Z,28.79
2018-08-23T15:24:19.347Z,28.85
2018-08-23T15:29:22.888Z,28.60
2018-08-23T15:34:26.572Z,28.29
2018-08-23T15:39:30.191Z,28.65
2018-08-23T15:44:33.688Z,28.82
2018-08-23T15:49:37.254Z,28.86
2018-08-23T15:54:40.835Z,28.61
2018-08-23T15:59:44.382Z,28.65
2018-08-23T16:04:48.018Z,28.39
2018-08-23T16:09:51.566Z,28.50
2018-08-23T16:14:55.037Z,28.51
2018-08-23T16:20:03.909Z,28.24
2018-08-23T16:25:07.517Z,28.10
2018-08-23T16:30:14.128Z,28.19
2018-08-23T16:35:17.674Z,28.11
2018-08-23T16:40:26.722Z,27.88
2018-08-23T16:45:30.623Z,27.73
2018-08-23T16:50:34.177Z,27.56
2018-08-23T16:55:37.852Z,27.48
2018-08-23T17:00:41.634Z,27.33
2018-08-23T17:05:45.156Z,27.20
2018-08-23T17:10:48.830Z,27.01
2018-08-23T17:15:57.674Z,27.34
2018-08-23T17:21:01.391Z,27.84
2018-08-23T17:26:04.877Z,28.03
2018-08-23T17:31:08.421Z,28.17
2018-08-23T17:36:11.939Z,28.07
2018-08-23T17:41:18.190Z,28.02
2018-08-23T17:46:21.887Z,28.06
2018-08-23T17:51:25.955Z,28.00
2018-08-23T17:56:29.825Z,27.41
2018-08-23T18:01:33.411Z,26.60
2018-08-23T18:06:37.539Z,25.92
2018-08-23T18:11:41.186Z,25.59
2018-08-23T18:16:50.099Z,25.25
2018-08-23T18:21:53.864Z,25.09
2018-08-23T18:26:58.010Z,24.94
2018-08-23T18:32:01.644Z,24.83
2018-08-23T18:37:05.403Z,24.73
2018-08-23T18:42:08.945Z,24.58
2018-08-23T18:47:12.789Z,24.38
2018-08-23T18:52:16.345Z,24.26
2018-08-23T18:57:19.847Z,24.04
2018-08-23T19:02:24.086Z,23.83
2018-08-23T19:07:33.136Z,23.74
2018-08-23T19:12:36.785Z,23.59
2018-08-23T19:17:42.152Z,23.50
2018-08-23T19:22:45.914Z,23.35
2018-08-23T19:27:49.889Z,23.20
2018-08-23T19:32:54.585Z,23.05
2018-08-23T19:37:58.638Z,23.00
2018-08-23T19:43:03.305Z,22.89
2018-08-23T19:48:06.860Z,22.82
2018-08-23T19:53:10.441Z,22.71
2018-08-23T19:58:14.000Z,22.64
2018-08-23T20:03:17.593Z,22.50
2018-08-23T20:08:21.601Z,22.45
2018-08-23T20:13:25.220Z,22.43
2018-08-23T20:18:29.182Z,22.32
2018-08-23T20:23:32.721Z,22.25
2018-08-23T20:28:36.318Z,22.15
2018-08-23T20:33:39.936Z,22.03
2018-08-23T20:38:43.437Z,21.97
2018-08-23T20:43:47.003Z,21.88
2018-08-23T20:48:51.543Z,21.86
2018-08-23T20:53:55.090Z,21.79
2018-08-23T20:58:58.861Z,21.58
2018-08-23T21:04:02.478Z,21.51
2018-08-23T21:09:09.212Z,21.48
2018-08-23T21:14:12.899Z,21.34
2018-08-23T21:19:16.515Z,21.32
2018-08-23T21:24:20.165Z,21.23
2018-08-23T21:29:23.716Z,21.10
2018-08-23T21:34:27.289Z,21.06
2018-08-23T21:39:30.802Z,20.94
2018-08-23T21:44:34.439Z,20.95
2018-08-23T21:49:39.380Z,20.93
2018-08-23T21:54:43.699Z,20.81
2018-08-23T21:59:47.574Z,20.72
2018-08-23T22:04:52.705Z,20.63
2018-08-23T22:09:56.259Z,20.53
2018-08-23T22:14:59.774Z,20.47
2018-08-23T22:20:04.046Z,20.41
2018-08-23T22:25:07.955Z,20.33
2018-08-23T22:30:23.459Z,20.28
2018-08-23T22:35:27.770Z,20.25
2018-08-23T22:40:31.380Z,20.23
2018-08-23T22:45:35.779Z,20.24
2018-08-23T22:50:39.371Z,20.19
2018-08-23T22:55:42.962Z,20.22
2018-08-23T23:00:46.647Z,20.23
2018-08-23T23:05:50.214Z,20.22
2018-08-23T23:10:54.507Z,20.20
2018-08-23T23:15:58.038Z,20.14
2018-08-23T23:21:02.193Z,20.17
2018-08-23T23:26:06.176Z,20.19
2018-08-23T23:31:09.775Z,20.18
2018-08-23T23:36:14.171Z,20.28
2018-08-23T23:41:17.713Z,20.24
2018-08-23T23:46:21.452Z,20.23
2018-08-23T23:51:24.984Z,20.19
2018-08-23T23:56:28.674Z,20.21
